createdAt,value
2022-10-31T00:01:01.189Z,100502.53
2022-10-31T00:03:28.236Z,100500.20
2022-10-31T00:05:55.388Z,100499.63
2022-10-31T00:08:22.550Z,100496.29
2022-10-31T00:10:49.930Z,100500.34
2022-10-31T00:13:17.331Z,100498.21
2022-10-31T00:15:44.712Z,100499.05
2022-10-31T00:18:12.449Z,100500.98
2022-10-31T00:20:40.527Z,100498.73
2022-10-31T00:23:08.284Z,100500.56
2022-10-31T00:25:37.709Z,100500.52
2022-10-31T00:28:06.097Z,100498.00
2022-10-31T00:30:34.050Z,100504.05
2022-10-31T00:33:02.297Z,100502.83
2022-10-31T00:35:29.978Z,100503.19
2022-10-31T00:37:57.230Z,100508.23
2022-10-31T00:40:24.372Z,100504.16
2022-10-31T00:42:52.383Z,100506.67
2022-10-31T00:45:19.610Z,100503.89
2022-10-31T00:47:46.799Z,100503.25
2022-10-31T00:50:14.027Z,100503.61
2022-10-31T00:52:42.197Z,100504.39
2022-10-31T00:55:10.446Z,100508.88
2022-10-31T00:57:37.909Z,100508.80
2022-10-31T01:00:06.181Z,100512.87
2022-10-31T01:02:33.609Z,100514.98
2022-10-31T01:05:01.558Z,100515.16
2022-10-31T01:07:28.757Z,100513.97
2022-10-31T01:09:55.905Z,100518.75
2022-10-31T01:12:24.710Z,100517.91
2022-10-31T01:14:51.845Z,100518.54
2022-10-31T01:17:19.528Z,100520.19
2022-10-31T01:19:47.889Z,100520.28
2022-10-31T01:22:15.147Z,100516.27
2022-10-31T01:24:42.330Z,100515.02
2022-10-31T01:27:09.363Z,100517.60
2022-10-31T01:29:36.581Z,100518.89
2022-10-31T01:32:03.933Z,100514.95
2022-10-31T01:34:32.129Z,100516.63
2022-10-31T01:36:59.178Z,100514.15
2022-10-31T01:39:26.307Z,100518.11
2022-10-31T01:41:55.539Z,100514.52
2022-10-31T01:44:23.720Z,100514.05
2022-10-31T01:46:58.388Z,100513.73
2022-10-31T01:49:33.497Z,100512.45
2022-10-31T01:52:08.648Z,100512.85
2022-10-31T01:54:39.394Z,100515.05
2022-10-31T01:57:09.295Z,100513.49
2022-10-31T01:59:38.352Z,100513.58
2022-10-31T02:02:05.809Z,100512.99
2022-10-31T02:04:33.334Z,100515.21
2022-10-31T02:07:04.431Z,100519.83
2022-10-31T02:09:33.207Z,100516.38
2022-10-31T02:12:03.804Z,100518.52
2022-10-31T02:14:31.857Z,100522.41
2022-10-31T02:16:59.401Z,100523.60
2022-10-31T02:20:04.052Z,100523.42
2022-10-31T02:22:58.709Z,100522.55
2022-10-31T02:25:47.906Z,100525.11
2022-10-31T02:28:36.666Z,100525.48
2022-10-31T02:31:08.883Z,100527.30
2022-10-31T02:33:47.469Z,100525.92
2022-10-31T02:36:23.919Z,100526.21
2022-10-31T02:39:10.285Z,100527.19
2022-10-31T02:42:18.087Z,100529.93
2022-10-31T02:44:49.566Z,100532.09
2022-10-31T02:47:19.311Z,100534.23
2022-10-31T02:49:50.422Z,100534.44
2022-10-31T02:52:23.190Z,100538.91
2022-10-31T02:54:50.471Z,100537.29
2022-10-31T02:57:21.397Z,100538.33
2022-10-31T02:59:51.327Z,100539.52
2022-10-31T03:02:31.000Z,100539.33
2022-10-31T03:05:06.902Z,100542.00
2022-10-31T03:07:52.708Z,100544.94
2022-10-31T03:10:32.825Z,100545.67
2022-10-31T03:15:58.093Z,100546.70
2022-10-31T03:18:31.126Z,100543.35
2022-10-31T03:21:06.968Z,100546.90
2022-10-31T03:23:37.059Z,100547.21
2022-10-31T03:26:06.800Z,100549.73
2022-10-31T03:28:45.537Z,100552.76
2022-10-31T03:31:17.517Z,100550.48
2022-10-31T03:33:45.990Z,100550.53
2022-10-31T03:36:16.326Z,100553.78
2022-10-31T03:38:44.518Z,100557.77
2022-10-31T03:41:15.873Z,100565.86
2022-10-31T03:43:54.370Z,100563.77
2022-10-31T03:46:21.747Z,100561.95
2022-10-31T03:48:50.622Z,100561.34
2022-10-31T03:51:24.229Z,100562.38
2022-10-31T03:54:03.756Z,100566.59
2022-10-31T03:56:35.091Z,100572.38
2022-10-31T03:59:07.421Z,100573.90
2022-10-31T04:01:40.048Z,100572.98
2022-10-31T04:04:08.461Z,100571.73
2022-10-31T04:06:37.157Z,100571.25
2022-10-31T04:09:06.192Z,100570.64
2022-10-31T04:11:37.788Z,100572.22
2022-10-31T04:14:39.825Z,100573.98
2022-10-31T04:17:10.310Z,100577.35
2022-10-31T04:19:39.470Z,100579.42
2022-10-31T04:22:06.731Z,100578.69
2022-10-31T04:24:34.169Z,100580.48
2022-10-31T04:27:01.315Z,100577.11
2022-10-31T04:29:28.968Z,100575.45
2022-10-31T04:31:56.748Z,100571.37
2022-10-31T04:34:24.109Z,100574.51
2022-10-31T04:36:52.365Z,100576.13
2022-10-31T04:39:24.034Z,100579.66
2022-10-31T04:42:13.761Z,100583.70
2022-10-31T04:44:40.796Z,100586.98
2022-10-31T04:47:08.693Z,100584.19
2022-10-31T04:49:36.872Z,100589.02
2022-10-31T04:52:04.044Z,100588.32
2022-10-31T04:54:31.174Z,100587.18
2022-10-31T04:57:24.271Z,100595.75
2022-10-31T04:59:51.520Z,100596.26
2022-10-31T05:02:18.733Z,100594.42
2022-10-31T05:04:51.749Z,100594.26
2022-10-31T05:07:19.257Z,100597.21
2022-10-31T05:09:46.351Z,100594.48
2022-10-31T05:12:13.710Z,100596.09
2022-10-31T05:15:13.629Z,100595.41
2022-10-31T05:17:59.892Z,100594.77
2022-10-31T05:20:50.013Z,100597.52
2022-10-31T05:23:24.842Z,100598.02
2022-10-31T05:25:51.988Z,100598.15
2022-10-31T05:28:19.155Z,100602.23
2022-10-31T05:30:46.238Z,100607.16
2022-10-31T05:33:15.473Z,100606.25
2022-10-31T05:36:01.370Z,100604.08
2022-10-31T05:38:37.317Z,100604.27
2022-10-31T05:41:25.292Z,100606.02
2022-10-31T05:43:54.171Z,100609.56
2022-10-31T05:46:24.349Z,100608.92
2022-10-31T05:49:14.558Z,100608.89
2022-10-31T05:52:00.484Z,100613.45
2022-10-31T05:54:35.081Z,100611.79
2022-10-31T05:57:02.198Z,100609.15
2022-10-31T05:59:29.265Z,100607.68
2022-10-31T06:01:56.494Z,100609.64
2022-10-31T06:04:46.869Z,100609.19
2022-10-31T06:07:14.163Z,100611.92
2022-10-31T06:09:41.330Z,100613.18
2022-10-31T06:12:08.780Z,100613.89
2022-10-31T06:14:54.759Z,100615.52
2022-10-31T06:17:22.120Z,100614.59
2022-10-31T06:22:22.790Z,100615.99
2022-10-31T06:24:50.329Z,100621.34
2022-10-31T06:27:29.049Z,100618.90
2022-10-31T06:29:56.521Z,100622.63
2022-10-31T06:32:32.312Z,100626.83
2022-10-31T06:35:00.476Z,100629.11
2022-10-31T06:37:27.574Z,100632.96
2022-10-31T06:39:59.966Z,100635.97
2022-10-31T06:42:27.023Z,100633.96
2022-10-31T06:44:54.659Z,100633.05
2022-10-31T06:47:56.833Z,100633.45
2022-10-31T06:50:32.553Z,100637.92
2022-10-31T06:53:00.215Z,100639.35
2022-10-31T06:55:28.527Z,100641.40
2022-10-31T06:58:02.030Z,100645.27
2022-10-31T07:00:32.191Z,100650.64
2022-10-31T07:03:11.890Z,100655.82
2022-10-31T07:05:39.685Z,100654.00
2022-10-31T07:08:09.872Z,100654.52
2022-10-31T07:10:40.486Z,100654.08
2022-10-31T07:13:15.945Z,100659.36
2022-10-31T07:15:47.395Z,100662.33
2022-10-31T07:18:14.745Z,100666.36
2022-10-31T07:20:43.323Z,100666.92
2022-10-31T07:23:12.224Z,100670.02
2022-10-31T07:25:40.901Z,100669.02
2022-10-31T07:28:13.047Z,100669.04
2022-10-31T07:30:40.746Z,100673.27
2022-10-31T07:33:09.824Z,100672.84
2022-10-31T07:35:57.566Z,100676.10
2022-10-31T07:38:25.546Z,100673.88
2022-10-31T07:40:56.584Z,100672.79
2022-10-31T07:43:24.127Z,100672.50
2022-10-31T07:46:24.246Z,100671.80
2022-10-31T07:49:09.931Z,100676.31
2022-10-31T07:51:58.309Z,100675.91
2022-10-31T07:54:44.286Z,100680.04
2022-10-31T07:57:11.926Z,100682.48
2022-10-31T07:59:39.306Z,100682.33
2022-10-31T08:02:07.066Z,100685.27
2022-10-31T08:05:01.653Z,100683.08
2022-10-31T08:07:47.445Z,100687.04
2022-10-31T08:10:17.347Z,100687.59
2022-10-31T08:12:44.902Z,100687.16
2022-10-31T08:15:12.983Z,100683.15
2022-10-31T08:17:40.327Z,100684.02
2022-10-31T08:20:08.738Z,100678.36
2022-10-31T08:22:43.748Z,100678.20
2022-10-31T08:25:11.525Z,100679.75
2022-10-31T08:27:39.430Z,100674.95
2022-10-31T08:30:07.771Z,100678.54
2022-10-31T08:32:36.638Z,100682.76
2022-10-31T08:35:22.936Z,100680.56
2022-10-31T08:38:14.346Z,100682.35
2022-10-31T08:40:42.466Z,100683.36
2022-10-31T08:43:17.591Z,100682.27
2022-10-31T08:45:46.228Z,100684.61
2022-10-31T08:48:18.890Z,100682.73
2022-10-31T08:50:47.373Z,100681.70
2022-10-31T08:53:17.214Z,100683.45
2022-10-31T08:55:48.367Z,100683.51
2022-10-31T08:58:26.573Z,100686.80
2022-10-31T09:01:00.631Z,100686.61
2022-10-31T09:03:30.471Z,100682.38
2022-10-31T09:06:01.707Z,100683.18
2022-10-31T09:08:31.351Z,100684.68
2022-10-31T09:10:59.309Z,100682.55
2022-10-31T09:13:46.958Z,100681.59
2022-10-31T09:16:53.161Z,100684.32
2022-10-31T09:19:22.927Z,100683.02
2022-10-31T09:21:55.594Z,100687.40
2022-10-31T09:24:23.263Z,100683.98
2022-10-31T09:26:50.732Z,100689.60
2022-10-31T09:29:20.697Z,100689.09
2022-10-31T09:31:51.677Z,100694.27
2022-10-31T09:34:45.280Z,100694.27
2022-10-31T09:37:16.180Z,100693.93
2022-10-31T09:39:43.433Z,100696.95
2022-10-31T09:42:37.213Z,100694.31
2022-10-31T09:45:28.117Z,100697.34
2022-10-31T09:48:35.502Z,100696.85
2022-10-31T09:51:15.870Z,100699.89
2022-10-31T09:53:59.202Z,100700.51
2022-10-31T09:56:27.371Z,100699.66
2022-10-31T09:58:59.574Z,100701.09
2022-10-31T10:01:48.795Z,100697.34
2022-10-31T10:04:43.396Z,100694.84
2022-10-31T10:07:42.504Z,100696.59
2022-10-31T10:10:20.405Z,100698.77
2022-10-31T10:13:37.425Z,100690.70
2022-10-31T10:16:20.847Z,100695.88
2022-10-31T10:19:14.006Z,100693.84
2022-10-31T10:21:50.068Z,100690.47
2022-10-31T10:24:35.335Z,100688.65
2022-10-31T10:27:43.575Z,100687.21
2022-10-31T10:30:22.190Z,100685.64
2022-10-31T10:32:53.126Z,100680.49
2022-10-31T10:35:28.464Z,100682.48
2022-10-31T10:38:01.411Z,100683.65
2022-10-31T10:40:29.631Z,100682.42
2022-10-31T10:43:22.481Z,100683.27
2022-10-31T10:46:25.372Z,100680.70
2022-10-31T10:48:59.665Z,100678.55
2022-10-31T10:51:58.264Z,100676.55
2022-10-31T10:54:44.441Z,100674.41
2022-10-31T10:57:14.454Z,100670.52
2022-10-31T10:59:43.897Z,100669.16
2022-10-31T11:02:32.774Z,100667.08
2022-10-31T11:05:02.445Z,100665.26
2022-10-31T11:07:40.355Z,100659.45
2022-10-31T11:10:15.291Z,100661.44
2022-10-31T11:12:43.656Z,100658.23
2022-10-31T11:15:23.901Z,100661.91
2022-10-31T11:17:56.901Z,100658.81
2022-10-31T11:20:31.726Z,100656.05
2022-10-31T11:23:17.509Z,100656.91
2022-10-31T11:26:02.819Z,100655.90
2022-10-31T11:28:31.661Z,100653.46
2022-10-31T11:31:07.617Z,100646.15
2022-10-31T11:33:38.661Z,100650.02
2022-10-31T11:36:20.363Z,100646.14
2022-10-31T11:38:47.726Z,100645.72
2022-10-31T11:41:17.789Z,100646.47
2022-10-31T11:43:52.588Z,100647.46
2022-10-31T11:46:42.440Z,100648.02
2022-10-31T11:49:22.180Z,100642.17
2022-10-31T11:51:54.350Z,100640.48
2022-10-31T11:54:26.006Z,100637.91
2022-10-31T11:56:53.359Z,100639.68
2022-10-31T11:59:32.209Z,100642.18
2022-10-31T12:02:02.356Z,100637.20
2022-10-31T12:04:34.369Z,100634.02
2022-10-31T12:07:01.820Z,100634.69
2022-10-31T12:09:31.647Z,100635.69
2022-10-31T12:12:12.295Z,100636.57
2022-10-31T12:15:13.549Z,100634.56
2022-10-31T12:17:46.518Z,100636.41
2022-10-31T12:20:38.886Z,100631.65
2022-10-31T12:23:25.477Z,100630.61
2022-10-31T12:26:15.032Z,100630.50
2022-10-31T12:29:07.087Z,100628.61
2022-10-31T12:31:54.526Z,100631.91
2022-10-31T12:35:19.446Z,100626.45
2022-10-31T12:38:05.425Z,100623.86
2022-10-31T12:40:57.883Z,100626.35
2022-10-31T12:44:07.106Z,100626.78
2022-10-31T12:46:40.387Z,100629.15
2022-10-31T12:49:58.727Z,100626.59
2022-10-31T12:52:33.658Z,100626.52
2022-10-31T12:55:11.244Z,100620.88
2022-10-31T12:57:44.608Z,100619.08
2022-10-31T13:00:19.367Z,100617.91
2022-10-31T13:02:58.381Z,100615.51
2022-10-31T13:05:35.485Z,100614.27
2022-10-31T13:08:13.309Z,100610.08
2022-10-31T13:10:46.742Z,100610.05
2022-10-31T13:13:20.407Z,100607.39
2022-10-31T13:15:51.157Z,100606.57
2022-10-31T13:18:47.155Z,100607.98
2022-10-31T13:21:20.456Z,100603.23
2022-10-31T13:23:52.250Z,100605.59
2022-10-31T13:26:33.462Z,100600.80
2022-10-31T13:29:37.916Z,100596.21
2022-10-31T13:32:11.094Z,100595.80
2022-10-31T13:34:44.988Z,100596.99
2022-10-31T13:37:36.430Z,100593.73
2022-10-31T13:40:46.375Z,100590.98
2022-10-31T13:43:42.787Z,100588.64
2022-10-31T13:46:40.528Z,100591.23
2022-10-31T13:49:26.790Z,100587.11
2022-10-31T13:51:54.643Z,100583.88
2022-10-31T13:54:33.977Z,100580.35
2022-10-31T13:57:02.067Z,100582.04
2022-10-31T13:59:32.687Z,100580.73
2022-10-31T14:02:02.455Z,100580.30
2022-10-31T14:04:38.225Z,100576.36
2022-10-31T14:07:17.836Z,100577.27
2022-10-31T14:09:57.602Z,100574.77
2022-10-31T14:12:40.564Z,100578.36
2022-10-31T14:15:14.166Z,100580.52
2022-10-31T14:17:48.473Z,100576.99
2022-10-31T14:20:15.717Z,100578.45
2022-10-31T14:22:43.388Z,100573.98
2022-10-31T14:25:29.649Z,100572.23
2022-10-31T14:27:59.615Z,100572.85
2022-10-31T14:30:29.113Z,100572.50
2022-10-31T14:33:01.994Z,100573.23
2022-10-31T14:35:59.247Z,100570.67
2022-10-31T14:39:03.887Z,100569.53
2022-10-31T14:41:50.578Z,100568.50
2022-10-31T14:44:31.349Z,100567.94
2022-10-31T14:47:16.254Z,100569.73
2022-10-31T14:50:01.797Z,100561.15
2022-10-31T14:52:29.247Z,100557.11
2022-10-31T14:55:00.184Z,100559.38
2022-10-31T14:57:31.125Z,100558.39
2022-10-31T15:00:07.073Z,100559.89
2022-10-31T15:02:56.877Z,100557.33
2022-10-31T15:05:24.344Z,100554.98
2022-10-31T15:07:59.253Z,100561.64
2022-10-31T15:10:28.467Z,100561.91
2022-10-31T15:12:55.775Z,100565.27
2022-10-31T15:15:27.601Z,100565.77
2022-10-31T15:17:57.995Z,100565.63
2022-10-31T15:20:30.780Z,100568.14
2022-10-31T15:22:59.681Z,100572.96
2022-10-31T15:25:30.164Z,100567.91
2022-10-31T15:27:57.329Z,100568.84
2022-10-31T15:30:27.589Z,100568.98
2022-10-31T15:32:58.964Z,100562.12
2022-10-31T15:35:31.225Z,100560.89
2022-10-31T15:38:00.546Z,100562.80
2022-10-31T15:40:29.464Z,100557.94
2022-10-31T15:43:03.125Z,100560.08
2022-10-31T15:45:31.720Z,100563.22
2022-10-31T15:48:01.603Z,100562.40
2022-10-31T15:50:33.553Z,100565.28
2022-10-31T15:53:01.598Z,100567.89
2022-10-31T15:55:31.299Z,100565.21
2022-10-31T15:58:00.598Z,100563.96
2022-10-31T16:00:35.324Z,100564.34
2022-10-31T16:03:21.236Z,100566.77
2022-10-31T16:06:00.072Z,100574.07
2022-10-31T16:08:30.258Z,100572.98
2022-10-31T16:11:00.686Z,100570.15
2022-10-31T16:13:30.732Z,100566.98
2022-10-31T16:16:34.174Z,100568.93
2022-10-31T16:19:02.933Z,100571.52
2022-10-31T16:21:33.257Z,100575.83
2022-10-31T16:24:06.241Z,100575.08
2022-10-31T16:26:34.373Z,100574.72
2022-10-31T16:29:04.747Z,100576.73
2022-10-31T16:31:39.111Z,100576.16
2022-10-31T16:34:23.734Z,100573.89
2022-10-31T16:36:53.538Z,100577.02
2022-10-31T16:39:20.971Z,100573.88
2022-10-31T16:41:52.699Z,100573.59
2022-10-31T16:44:27.633Z,100570.61
2022-10-31T16:47:14.959Z,100571.09
2022-10-31T16:49:43.542Z,100570.48
2022-10-31T16:52:17.460Z,100572.02
2022-10-31T16:54:45.210Z,100569.88
2022-10-31T16:57:21.136Z,100570.40
2022-10-31T16:59:50.170Z,100571.48
2022-10-31T17:02:18.354Z,100573.89
2022-10-31T17:04:45.708Z,100572.85
2022-10-31T17:07:13.165Z,100569.59
2022-10-31T17:09:40.505Z,100567.24
2022-10-31T17:12:11.053Z,100571.06
2022-10-31T17:14:38.385Z,100568.83
2022-10-31T17:17:06.553Z,100569.31
2022-10-31T17:19:35.466Z,100568.87
2022-10-31T17:22:03.954Z,100568.45
2022-10-31T17:24:31.406Z,100569.70
2022-10-31T17:26:58.743Z,100569.47
2022-10-31T17:29:25.990Z,100574.02
2022-10-31T17:31:53.784Z,100573.30
2022-10-31T17:34:21.115Z,100573.25
2022-10-31T17:36:52.650Z,100569.94
2022-10-31T17:39:21.194Z,100570.84
2022-10-31T17:41:52.934Z,100572.02
2022-10-31T17:44:20.910Z,100568.52
2022-10-31T17:46:48.746Z,100567.91
2022-10-31T17:49:16.303Z,100566.66
2022-10-31T17:51:44.361Z,100571.05
2022-10-31T17:54:12.546Z,100568.56
2022-10-31T17:56:39.835Z,100567.64
2022-10-31T17:59:07.760Z,100570.08
2022-10-31T18:01:35.654Z,100567.66
2022-10-31T18:04:03.711Z,100567.20
2022-10-31T18:06:31.368Z,100568.66
2022-10-31T18:09:03.966Z,100567.54
2022-10-31T18:11:31.941Z,100568.17
2022-10-31T18:14:00.965Z,100565.77
2022-10-31T18:16:28.900Z,100566.92
2022-10-31T18:19:02.257Z,100567.44
2022-10-31T18:21:30.043Z,100560.30
2022-10-31T18:24:00.197Z,100559.80
2022-10-31T18:26:29.368Z,100559.80
2022-10-31T18:28:56.892Z,100556.00
2022-10-31T18:31:26.119Z,100557.27
2022-10-31T18:33:57.755Z,100557.20
2022-10-31T18:36:25.827Z,100556.38
2022-10-31T18:38:55.685Z,100554.84
2022-10-31T18:41:23.516Z,100556.77
2022-10-31T18:43:51.836Z,100554.75
2022-10-31T18:46:20.866Z,100552.51
2022-10-31T18:48:49.066Z,100552.14
2022-10-31T18:51:19.267Z,100547.91
2022-10-31T18:53:54.985Z,100548.72
2022-10-31T18:56:24.019Z,100548.42
2022-10-31T18:58:52.106Z,100548.28
2022-10-31T19:01:21.504Z,100548.56
2022-10-31T19:03:56.752Z,100545.32
2022-10-31T19:06:28.642Z,100541.59
2022-10-31T19:09:01.669Z,100539.46
2022-10-31T19:11:29.026Z,100540.14
2022-10-31T19:13:57.731Z,100535.94
2022-10-31T19:16:26.194Z,100531.18
2022-10-31T19:18:56.767Z,100526.15
2022-10-31T19:21:24.793Z,100526.85
2022-10-31T19:23:54.453Z,100528.70
2022-10-31T19:26:22.084Z,100530.11
2022-10-31T19:28:50.276Z,100533.19
2022-10-31T19:31:19.986Z,100530.73
2022-10-31T19:33:47.506Z,100532.04
2022-10-31T19:36:17.322Z,100528.29
2022-10-31T19:38:47.367Z,100525.42
2022-10-31T19:41:18.072Z,100530.42
2022-10-31T19:43:46.028Z,100524.55
2022-10-31T19:46:22.132Z,100523.02
2022-10-31T19:49:01.526Z,100520.19
2022-10-31T19:51:29.016Z,100519.21
2022-10-31T19:53:56.860Z,100522.11
2022-10-31T19:56:25.822Z,100530.58
2022-10-31T19:58:53.690Z,100528.02
2022-10-31T20:01:23.567Z,100528.18
2022-10-31T20:03:52.148Z,100523.25
2022-10-31T20:06:25.577Z,100521.17
2022-10-31T20:08:54.395Z,100517.10
2022-10-31T20:11:23.957Z,100510.84
2022-10-31T20:13:51.250Z,100507.41
2022-10-31T20:16:18.611Z,100505.48
2022-10-31T20:18:47.309Z,100503.40
2022-10-31T20:21:18.077Z,100503.19
2022-10-31T20:23:48.355Z,100505.69
2022-10-31T20:26:18.430Z,100501.69
2022-10-31T20:28:46.944Z,100500.52
2022-10-31T20:31:20.604Z,100493.81
2022-10-31T20:33:49.487Z,100489.96
2022-10-31T20:36:23.160Z,100494.80
2022-10-31T20:38:52.987Z,100491.52
2022-10-31T20:41:21.573Z,100492.65
2022-10-31T20:43:49.359Z,100492.37
2022-10-31T20:46:20.351Z,100493.98
2022-10-31T20:48:47.960Z,100494.52
2022-10-31T20:51:24.314Z,100493.50
2022-10-31T20:53:54.628Z,100485.73
2022-10-31T20:56:24.483Z,100483.80
2022-10-31T20:58:53.104Z,100475.02
2022-10-31T21:01:23.444Z,100477.27
2022-10-31T21:03:52.976Z,100473.33
2022-10-31T21:06:21.977Z,100469.64
2022-10-31T21:08:51.126Z,100474.88
2022-10-31T21:11:21.598Z,100474.82
2022-10-31T21:13:49.401Z,100471.29
2022-10-31T21:16:43.168Z,100471.92
2022-10-31T21:19:10.838Z,100468.73
2022-10-31T21:21:38.029Z,100471.75
2022-10-31T21:24:08.549Z,100469.65
2022-10-31T21:26:38.948Z,100473.75
2022-10-31T21:29:08.923Z,100474.27
2022-10-31T21:31:37.478Z,100463.26
2022-10-31T21:34:05.504Z,100459.50
2022-10-31T21:36:34.084Z,100456.55
2022-10-31T21:39:01.346Z,100453.77
2022-10-31T21:41:28.921Z,100450.30
2022-10-31T21:43:56.563Z,100451.00
2022-10-31T21:46:26.443Z,100451.17
2022-10-31T21:48:53.908Z,100448.60
2022-10-31T21:51:23.430Z,100443.31
2022-10-31T21:54:10.111Z,100444.89
2022-10-31T21:56:38.124Z,100441.53
2022-10-31T21:59:06.311Z,100442.73
2022-10-31T22:01:34.500Z,100441.16
2022-10-31T22:04:01.902Z,100443.14
2022-10-31T22:06:30.885Z,100440.89
2022-10-31T22:09:03.591Z,100436.30
2022-10-31T22:11:30.947Z,100437.43
2022-10-31T22:14:01.723Z,100433.20
2022-10-31T22:16:30.125Z,100430.90
2022-10-31T22:18:59.662Z,100429.08
2022-10-31T22:21:28.326Z,100427.84
2022-10-31T22:24:03.328Z,100426.02
2022-10-31T22:26:32.890Z,100422.95
2022-10-31T22:29:03.464Z,100418.23
2022-10-31T22:31:31.837Z,100415.81
2022-10-31T22:33:59.685Z,100410.35
2022-10-31T22:36:28.669Z,100410.59
2022-10-31T22:38:56.515Z,100401.61
2022-10-31T22:41:26.076Z,100403.58
2022-10-31T22:43:54.344Z,100403.66
2022-10-31T22:46:27.388Z,100406.27
2022-10-31T22:49:10.623Z,100405.86
2022-10-31T22:51:39.658Z,100403.40
2022-10-31T22:54:15.713Z,100402.33
2022-10-31T22:56:42.873Z,100396.75
2022-10-31T22:59:13.776Z,100397.60
2022-10-31T23:01:41.256Z,100393.88
2022-10-31T23:04:09.134Z,100393.16
2022-10-31T23:06:37.763Z,100389.63
2022-10-31T23:09:07.687Z,100389.67
2022-10-31T23:11:38.100Z,100387.85
2022-10-31T23:14:11.005Z,100388.02
2022-10-31T23:16:51.488Z,100380.23
2022-10-31T23:19:27.938Z,100375.89
2022-10-31T23:22:02.372Z,100373.85
2022-10-31T23:24:33.741Z,100371.61
2022-10-31T23:27:08.924Z,100368.56
2022-10-31T23:29:43.547Z,100365.04
2022-10-31T23:32:21.010Z,100360.91
2022-10-31T23:34:50.079Z,100355.15
2022-10-31T23:37:18.921Z,100353.20
2022-10-31T23:39:46.386Z,100359.88
2022-10-31T23:42:14.343Z,100358.13
2022-10-31T23:44:41.750Z,100361.91
2022-10-31T23:47:09.392Z,100361.43
2022-10-31T23:49:36.827Z,100359.19
2022-10-31T23:52:05.101Z,100360.52
2022-10-31T23:54:33.068Z,100356.23
2022-10-31T23:57:00.446Z,100355.34
2022-10-31T23:59:29.356Z,100356.52
